Time;durP1;ratioP1;P1;durP2;ratioP2;P2;SDS_P1;SDS_P2;PMS_P1;PMS_P2;Temp;Humidity;BMP_temperature;BMP_pressure;BME280_temperature;BME280_humidity;BME280_pressure;Samples;Min_cycle;Max_cycle;Signal;HPM_P1;HPM_P2
2023/09/25 00:01:41;;;;;;;4.13;1.80;;;;;;;13.78;76.62;98617.84;6247228;28;20230;-58
2023/09/25 00:04:45;;;;;;;1.70;1.60;;;;;;;13.86;77.06;98635.44;6244734;28;20493;-56
2023/09/25 00:07:48;;;;;;;1.60;1.50;;;;;;;13.78;76.53;98619.72;6240806;28;20325;-54
2023/09/25 00:10:50;;;;;;;3.27;1.40;;;;;;;13.85;76.70;98625.78;6239909;28;20242;-52
2023/09/25 00:13:53;;;;;;;2.03;1.80;;;;;;;13.86;76.87;98627.38;6242781;28;20237;-56
2023/09/25 00:16:55;;;;;;;1.57;1.40;;;;;;;13.84;76.34;98619.59;6245288;28;20285;-54
2023/09/25 00:19:58;;;;;;;2.83;1.40;;;;;;;13.85;76.79;98615.06;6243963;28;20334;-55
2023/09/25 00:23:01;;;;;;;2.00;1.70;;;;;;;13.79;79.09;98611.47;6237060;28;20370;-53
2023/09/25 00:26:05;;;;;;;2.40;1.77;;;;;;;13.80;79.57;98605.06;6241872;28;20565;-54
2023/09/25 00:29:09;;;;;;;3.97;1.63;;;;;;;13.78;80.14;98604.47;6241141;28;21140;-56
2023/09/25 00:32:13;;;;;;;2.27;1.90;;;;;;;13.75;80.01;98601.47;6246282;28;20770;-54
2023/09/25 00:35:16;;;;;;;3.50;1.47;;;;;;;13.72;79.70;98588.56;6241756;28;20234;-54
2023/09/25 00:38:21;;;;;;;4.37;1.40;;;;;;;13.70;80.06;98588.81;6237532;28;20245;-56
2023/09/25 00:41:24;;;;;;;5.63;1.70;;;;;;;13.66;79.38;98580.44;6230743;28;20774;-54
2023/09/25 00:44:26;;;;;;;2.17;1.80;;;;;;;13.66;79.02;98574.25;6230141;28;20227;-55
2023/09/25 00:47:29;;;;;;;1.80;1.50;;;;;;;13.56;78.89;98566.84;6242529;28;20748;-56
2023/09/25 00:50:33;;;;;;;2.23;1.37;;;;;;;13.46;78.71;98536.41;6257516;28;20258;-54
2023/09/25 00:53:40;;;;;;;2.03;1.67;;;;;;;13.63;78.70;98569.38;6240225;28;20239;-56
2023/09/25 00:56:43;;;;;;;3.73;1.80;;;;;;;13.61;79.20;98563.47;6239400;28;20237;-56
2023/09/25 00:59:46;;;;;;;4.10;1.63;;;;;;;13.58;78.77;98571.97;6231080;28;20282;-55
2023/09/25 01:02:48;;;;;;;2.10;1.73;;;;;;;13.55;83.13;98578.63;6239374;28;20231;-53
2023/09/25 01:05:51;;;;;;;1.87;1.57;;;;;;;13.44;83.54;98574.09;6242402;28;20226;-55
2023/09/25 01:08:54;;;;;;;2.00;1.47;;;;;;;13.24;84.01;98542.41;6239503;28;20234;-55
2023/09/25 01:11:57;;;;;;;2.23;1.80;;;;;;;13.38;82.70;98565.16;6237627;28;20729;-55
2023/09/25 01:15:00;;;;;;;2.80;1.80;;;;;;;13.41;82.83;98569.25;6242968;28;20235;-53
2023/09/25 01:18:04;;;;;;;2.13;1.50;;;;;;;13.40;83.87;98559.59;6245863;28;20330;-53
2023/09/25 01:21:06;;;;;;;4.07;2.00;;;;;;;13.19;84.51;98536.91;6240363;28;20247;-52
2023/09/25 01:24:09;;;;;;;2.10;1.80;;;;;;;13.30;84.76;98559.38;6245107;28;20285;-53
2023/09/25 01:27:11;;;;;;;4.90;1.87;;;;;;;13.23;84.79;98564.06;6237933;28;20886;-54
2023/09/25 01:30:16;;;;;;;1.53;1.43;;;;;;;13.11;84.74;98554.16;6242531;28;20293;-54
2023/09/25 01:33:18;;;;;;;1.70;1.60;;;;;;;13.04;84.79;98556.16;6240514;28;20231;-55
2023/09/25 01:36:20;;;;;;;1.60;1.50;;;;;;;12.97;85.01;98558.16;6231703;28;20755;-55
2023/09/25 01:39:24;;;;;;;1.50;1.40;;;;;;;12.92;84.95;98552.69;6250191;28;20234;-56
2023/09/25 01:42:27;;;;;;;1.60;1.50;;;;;;;12.87;85.33;98558.75;6237966;28;20228;-54
2023/09/25 01:45:29;;;;;;;2.07;1.70;;;;;;;12.83;85.20;98562.13;6226945;28;20588;-51
2023/09/25 01:48:32;;;;;;;1.97;1.77;;;;;;;12.75;85.09;98560.59;6241020;28;20219;-52
2023/09/25 01:51:34;;;;;;;2.37;1.50;;;;;;;12.65;85.72;98560.38;6235823;28;20322;-56
2023/09/25 01:54:37;;;;;;;1.93;1.57;;;;;;;12.58;86.05;98565.84;6245318;28;20228;-55
2023/09/25 01:57:39;;;;;;;1.90;1.63;;;;;;;12.55;86.35;98560.16;6244389;28;20223;-51
2023/09/25 02:00:43;;;;;;;3.37;1.93;;;;;;;12.51;87.81;98562.50;6243534;28;20311;-55
2023/09/25 02:03:46;;;;;;;2.27;1.70;;;;;;;12.52;87.86;98561.44;6256633;28;20750;-54
2023/09/25 02:06:49;;;;;;;2.13;1.87;;;;;;;12.37;88.14;98537.84;6231293;28;20336;-54
2023/09/25 02:09:52;;;;;;;1.90;1.70;;;;;;;12.52;87.66;98550.75;6221435;28;20230;-54
2023/09/25 02:12:54;;;;;;;1.97;1.80;;;;;;;12.45;88.20;98557.25;6230569;28;20701;-54
2023/09/25 02:15:57;;;;;;;2.03;1.73;;;;;;;12.43;88.55;98556.69;6249196;28;20699;-50
2023/09/25 02:18:59;;;;;;;2.00;1.80;;;;;;;12.43;89.29;98551.34;6244653;28;20216;-56
2023/09/25 02:22:06;;;;;;;1.73;1.63;;;;;;;12.45;89.24;98547.38;6242451;28;20354;-53
2023/09/25 02:25:09;;;;;;;2.17;1.60;;;;;;;12.42;89.11;98542.50;6240568;28;20249;-54
2023/09/25 02:28:11;;;;;;;2.10;1.90;;;;;;;12.44;90.13;98552.97;6225195;28;20236;-51
2023/09/25 02:31:13;;;;;;;2.13;1.73;;;;;;;12.43;90.73;98549.47;6239847;28;20337;-53
2023/09/25 02:34:17;;;;;;;2.20;2.00;;;;;;;12.41;91.05;98540.84;6247337;28;20230;-49
2023/09/25 02:37:20;;;;;;;2.67;1.97;;;;;;;12.42;91.83;98539.84;6241349;28;20343;-55
2023/09/25 02:40:24;;;;;;;2.83;2.00;;;;;;;12.42;92.17;98539.84;6233071;28;20317;-55
2023/09/25 02:43:27;;;;;;;6.03;2.30;;;;;;;12.45;91.93;98536.69;6217268;28;20247;-53
2023/09/25 02:46:29;;;;;;;3.43;2.27;;;;;;;12.59;87.79;98542.63;6215214;28;20315;-54
2023/09/25 02:49:31;;;;;;;2.20;2.00;;;;;;;12.61;88.40;98530.66;6224204;28;20239;-55
2023/09/25 02:52:34;;;;;;;3.77;2.27;;;;;;;12.64;88.26;98537.38;6240785;28;20231;-55
2023/09/25 02:55:36;;;;;;;4.07;2.27;;;;;;;12.72;87.59;98533.56;6222320;28;20242;-56
2023/09/25 02:58:39;;;;;;;2.80;2.00;;;;;;;12.72;87.36;98522.84;6219017;28;20709;-55
2023/09/25 03:01:41;;;;;;;2.60;2.00;;;;;;;12.74;87.19;98531.44;6232481;28;20240;-55
2023/09/25 03:04:44;;;;;;;2.23;1.60;;;;;;;12.73;87.86;98532.50;6224738;28;20232;-56
2023/09/25 03:07:47;;;;;;;2.50;1.90;;;;;;;12.68;88.83;98530.53;6219112;28;20591;-52
2023/09/25 03:10:49;;;;;;;1.90;1.80;;;;;;;12.45;89.50;98507.28;6221846;28;20227;-56
2023/09/25 03:13:53;;;;;;;2.40;1.80;;;;;;;12.50;89.83;98538.66;6215537;28;20235;-55
2023/09/25 03:16:55;;;;;;;3.33;2.27;;;;;;;12.44;90.21;98527.03;6245474;28;20318;-54
2023/09/25 03:19:58;;;;;;;1.93;1.77;;;;;;;12.38;90.74;98525.31;6217393;28;20239;-55
2023/09/25 03:23:01;;;;;;;2.47;2.00;;;;;;;12.34;91.68;98518.81;6216220;28;20323;-55
2023/09/25 03:26:03;;;;;;;2.33;1.80;;;;;;;12.28;91.57;98517.88;6225485;28;20228;-52
2023/09/25 03:29:06;;;;;;;3.50;2.13;;;;;;;12.21;92.55;98516.34;6219376;28;20232;-56
2023/09/25 03:32:08;;;;;;;2.33;2.13;;;;;;;12.13;93.02;98525.53;6217914;28;20278;-55
2023/09/25 03:35:11;;;;;;;3.23;2.20;;;;;;;12.10;93.23;98525.97;6224814;28;20224;-56
2023/09/25 03:38:13;;;;;;;4.17;2.23;;;;;;;12.08;93.49;98534.22;6224068;28;20228;-51
2023/09/25 03:41:16;;;;;;;4.70;2.27;;;;;;;11.93;93.67;98517.84;6226995;28;20286;-53
2023/09/25 03:44:19;;;;;;;2.73;2.00;;;;;;;12.04;93.91;98518.91;6244810;28;20262;-54
2023/09/25 03:47:22;;;;;;;3.80;2.47;;;;;;;12.04;93.94;98527.72;6232064;28;20317;-56
2023/09/25 03:50:24;;;;;;;2.73;2.00;;;;;;;12.00;94.56;98526.53;6230510;28;20789;-54
2023/09/25 03:53:27;;;;;;;4.50;2.43;;;;;;;11.97;94.00;98524.34;6241552;28;20235;-55
2023/09/25 03:56:29;;;;;;;3.83;2.40;;;;;;;11.92;94.63;98516.22;6231337;28;20232;-55
2023/09/25 03:59:32;;;;;;;2.40;2.00;;;;;;;12.01;95.06;98524.69;6242664;28;20231;-52
2023/09/25 04:02:34;;;;;;;2.40;2.00;;;;;;;12.05;94.04;98523.19;6244809;28;20238;-54
2023/09/25 04:05:37;;;;;;;3.63;2.23;;;;;;;11.91;94.22;98519.91;6230624;28;20373;-56
2023/09/25 04:08:39;;;;;;;4.00;2.10;;;;;;;12.03;94.00;98552.00;6239500;28;20224;-55
2023/09/25 04:11:41;;;;;;;3.50;1.77;;;;;;;11.76;94.25;98530.19;6240768;28;20238;-53
2023/09/25 04:14:44;;;;;;;3.80;2.40;;;;;;;11.88;94.11;98565.78;6241204;28;20242;-55
2023/09/25 04:17:50;;;;;;;2.17;1.97;;;;;;;11.93;94.79;98584.59;6238242;28;20265;-55
2023/09/25 04:20:53;;;;;;;2.50;2.13;;;;;;;11.88;95.11;98579.13;6245672;28;20717;-53
2023/09/25 04:23:55;;;;;;;3.40;1.97;;;;;;;11.85;95.26;98587.59;6243775;28;20234;-54
2023/09/25 04:26:57;;;;;;;4.50;2.20;;;;;;;11.81;95.32;98594.38;6241569;28;20382;-55
2023/09/25 04:30:00;;;;;;;3.23;2.30;;;;;;;11.78;95.39;98594.84;6225170;28;20784;-50
2023/09/25 04:33:02;;;;;;;2.33;2.13;;;;;;;11.74;95.67;98594.47;6245930;28;20715;-51
2023/09/25 04:36:08;;;;;;;2.50;2.00;;;;;;;11.73;95.23;98589.38;6243066;28;20223;-55
2023/09/25 04:39:12;;;;;;;2.60;2.23;;;;;;;11.71;95.68;98583.44;6239389;28;20303;-55
2023/09/25 04:42:14;;;;;;;2.10;1.90;;;;;;;11.44;96.03;98554.44;6239777;28;20254;-54
2023/09/25 04:45:18;;;;;;;3.73;2.13;;;;;;;11.60;96.53;98575.16;6241881;28;20380;-52
2023/09/25 04:48:21;;;;;;;3.20;2.10;;;;;;;11.67;96.45;98595.59;6237643;28;20616;-53
2023/09/25 04:51:24;;;;;;;3.43;1.90;;;;;;;11.59;96.58;98572.72;6237717;28;20228;-53
2023/09/25 04:54:26;;;;;;;2.40;2.17;;;;;;;11.68;96.55;98584.72;6244537;28;20592;-56
2023/09/25 04:57:29;;;;;;;4.20;2.10;;;;;;;11.68;96.59;98581.25;6259133;28;20226;-55
2023/09/25 05:00:32;;;;;;;2.63;1.80;;;;;;;11.66;97.06;98581.44;6231832;28;20231;-52
2023/09/25 05:03:34;;;;;;;2.77;1.93;;;;;;;11.67;97.02;98579.59;6240822;28;20223;-53
2023/09/25 05:06:40;;;;;;;2.30;1.87;;;;;;;11.69;97.25;98593.53;6237061;28;20227;-53
2023/09/25 05:09:43;;;;;;;3.80;2.33;;;;;;;11.69;98.51;98590.88;6240658;28;20364;-53
2023/09/25 05:12:45;;;;;;;2.23;1.90;;;;;;;11.71;98.31;98594.13;6229651;28;20223;-56
2023/09/25 05:15:48;;;;;;;2.43;1.90;;;;;;;11.76;98.33;98591.56;6238444;28;20227;-52
2023/09/25 05:18:50;;;;;;;2.60;2.10;;;;;;;11.56;98.24;98565.97;6238522;28;20230;-54
2023/09/25 05:21:53;;;;;;;4.40;2.37;;;;;;;11.84;98.63;98600.13;6238152;28;20227;-53
2023/09/25 05:24:56;;;;;;;2.30;2.00;;;;;;;11.89;98.46;98607.44;6239626;28;20315;-54
2023/09/25 05:27:58;;;;;;;2.20;2.00;;;;;;;11.94;98.38;98614.78;6242093;28;20247;-53
2023/09/25 05:31:01;;;;;;;5.07;2.50;;;;;;;11.97;98.61;98601.78;6228459;28;20228;-52
2023/09/25 05:34:04;;;;;;;3.07;2.10;;;;;;;12.01;99.01;98610.13;6242606;28;20231;-52
2023/09/25 05:37:07;;;;;;;3.87;2.27;;;;;;;12.05;98.79;98597.97;6240292;28;20253;-54
2023/09/25 05:40:12;;;;;;;3.60;2.30;;;;;;;12.08;98.51;98598.34;6236856;28;20246;-55
2023/09/25 05:43:14;;;;;;;2.83;1.97;;;;;;;12.12;98.74;98585.34;6239487;28;20240;-51
2023/09/25 05:46:17;;;;;;;2.40;1.87;;;;;;;12.14;99.28;98594.75;6241692;28;20727;-49
2023/09/25 05:49:19;;;;;;;4.03;1.80;;;;;;;12.15;99.32;98592.88;6226554;28;20238;-55
2023/09/25 05:52:21;;;;;;;3.03;2.10;;;;;;;12.18;99.65;98608.47;6239236;28;20231;-54
2023/09/25 05:55:24;;;;;;;2.17;2.00;;;;;;;12.25;100.00;98619.03;6240142;28;20246;-53
2023/09/25 05:58:26;;;;;;;2.60;2.40;;;;;;;12.29;100.00;98617.53;6229306;28;20239;-56
2023/09/25 06:01:29;;;;;;;4.07;2.00;;;;;;;12.37;100.00;98619.88;6229361;28;20366;-54
2023/09/25 06:04:37;;;;;;;4.27;2.17;;;;;;;12.59;96.86;98606.75;6230121;28;20298;-58
2023/09/25 06:07:39;;;;;;;2.63;2.43;;;;;;;12.72;93.16;98603.88;6239968;28;20303;-56
2023/09/25 06:10:44;;;;;;;4.17;2.47;;;;;;;12.83;92.96;98612.94;6240599;28;20777;-56
2023/09/25 06:13:46;;;;;;;3.83;2.20;;;;;;;12.81;93.51;98604.34;6243825;28;20235;-53
2023/09/25 06:16:50;;;;;;;2.73;2.10;;;;;;;12.95;95.26;98620.94;6241533;28;20247;-54
2023/09/25 06:19:54;;;;;;;2.70;2.37;;;;;;;12.96;95.55;98620.72;6243754;28;20242;-57
2023/09/25 06:22:59;;;;;;;2.43;2.10;;;;;;;12.91;95.69;98607.25;6232326;28;20700;-55
2023/09/25 06:26:01;;;;;;;2.60;2.00;;;;;;;13.07;95.31;98627.91;6244315;28;20653;-55
2023/09/25 06:29:04;;;;;;;2.27;2.07;;;;;;;13.13;95.22;98628.84;6242984;28;20236;-58
2023/09/25 06:32:06;;;;;;;2.87;2.63;;;;;;;13.12;91.97;98622.66;6242158;28;20228;-53
2023/09/25 06:35:09;;;;;;;3.70;2.37;;;;;;;13.36;87.65;98630.69;6242268;28;20285;-53
2023/09/25 06:38:11;;;;;;;3.03;2.37;;;;;;;13.44;88.03;98619.59;6241781;28;20231;-55
2023/09/25 06:41:14;;;;;;;2.80;2.13;;;;;;;13.51;87.57;98622.97;6243991;28;20320;-57
2023/09/25 06:44:16;;;;;;;3.13;2.43;;;;;;;13.59;85.63;98611.06;6258679;28;20238;-55
2023/09/25 06:47:18;;;;;;;1.97;1.80;;;;;;;13.56;84.81;98600.84;6257399;28;20673;-56
2023/09/25 06:50:21;;;;;;;4.33;2.40;;;;;;;13.71;84.89;98609.16;6244687;28;20222;-51
2023/09/25 06:53:23;;;;;;;2.90;2.03;;;;;;;13.77;83.08;98602.84;6251694;28;20231;-56
2023/09/25 06:56:25;;;;;;;4.43;2.83;;;;;;;13.90;81.35;98597.22;6254387;28;20236;-54
2023/09/25 06:59:29;;;;;;;3.13;2.33;;;;;;;13.87;81.36;98605.72;6258882;28;20234;-54
2023/09/25 07:02:31;;;;;;;2.30;2.10;;;;;;;13.87;82.73;98607.59;6254971;28;20242;-55
2023/09/25 07:05:34;;;;;;;2.87;2.57;;;;;;;13.88;82.17;98619.91;6253445;28;20220;-53
2023/09/25 07:08:38;;;;;;;3.43;2.50;;;;;;;13.99;81.16;98616.38;6254542;28;20223;-53
2023/09/25 07:11:40;;;;;;;2.83;2.50;;;;;;;13.97;82.31;98610.44;6246781;28;20227;-57
2023/09/25 07:14:55;;;;;;;2.60;2.10;;;;;;;14.00;82.33;98614.53;6245590;28;20308;-56
2023/09/25 07:17:59;;;;;;;4.00;2.13;;;;;;;14.00;83.49;98630.59;6246737;28;20238;-57
2023/09/25 07:21:02;;;;;;;2.70;2.03;;;;;;;14.11;80.94;98621.69;6240975;28;20239;-49
2023/09/25 07:24:04;;;;;;;2.80;2.20;;;;;;;14.11;80.32;98629.72;6241937;28;20307;-56
2023/09/25 07:27:06;;;;;;;2.60;2.40;;;;;;;14.05;81.39;98625.31;6238368;28;20226;-54
2023/09/25 07:30:10;;;;;;;2.30;2.10;;;;;;;14.02;83.32;98633.84;6244210;28;20209;-54
2023/09/25 07:33:12;;;;;;;3.40;2.47;;;;;;;14.00;84.09;98647.47;6245406;28;20297;-59
2023/09/25 07:36:20;;;;;;;2.30;1.97;;;;;;;14.00;84.66;98650.16;6247659;28;20217;-56
2023/09/25 07:39:22;;;;;;;2.50;2.30;;;;;;;13.98;84.47;98646.88;6243396;28;20231;-55
2023/09/25 07:42:25;;;;;;;3.77;2.70;;;;;;;14.00;83.12;98654.72;6244994;28;20239;-56
2023/09/25 07:45:27;;;;;;;4.67;3.13;;;;;;;14.03;82.39;98664.91;6241356;28;20333;-57
2023/09/25 07:48:30;;;;;;;4.93;2.70;;;;;;;14.03;84.02;98662.25;6244419;28;20240;-56
2023/09/25 07:51:33;;;;;;;4.03;3.00;;;;;;;14.10;83.00;98663.75;6241542;28;20230;-55
2023/09/25 07:54:35;;;;;;;4.03;2.90;;;;;;;14.12;82.25;98671.53;6242559;28;20246;-58
2023/09/25 07:57:43;;;;;;;3.10;2.63;;;;;;;14.05;83.26;98658.28;6240631;28;20246;-55
2023/09/25 08:00:47;;;;;;;4.40;3.40;;;;;;;14.12;83.53;98663.50;6241986;28;20243;-54
2023/09/25 08:03:52;;;;;;;3.77;3.37;;;;;;;14.14;83.64;98646.13;6239667;28;20238;-56
2023/09/25 08:06:55;;;;;;;3.63;3.30;;;;;;;14.17;83.72;98648.31;6243684;28;20243;-60
2023/09/25 08:09:57;;;;;;;3.33;3.03;;;;;;;14.19;83.70;98651.59;6222537;28;20235;-57
2023/09/25 08:13:00;;;;;;;4.00;3.27;;;;;;;14.23;84.29;98654.56;6241460;28;20239;-62
2023/09/25 08:16:06;;;;;;;3.90;3.13;;;;;;;14.31;83.98;98661.41;6231483;28;20235;-54
2023/09/25 08:19:08;;;;;;;3.20;3.00;;;;;;;14.30;85.41;98667.84;6241717;28;20283;-56
2023/09/25 08:22:11;;;;;;;4.47;3.10;;;;;;;14.33;84.66;98662.78;6241177;28;20243;-55
2023/09/25 08:25:14;;;;;;;4.40;3.33;;;;;;;14.36;84.29;98669.53;6241440;28;20305;-56
2023/09/25 08:28:16;;;;;;;3.37;2.90;;;;;;;14.13;83.86;98619.56;6240965;28;20660;-56
2023/09/25 08:31:19;;;;;;;4.80;3.60;;;;;;;14.43;84.05;98672.88;6240600;28;20369;-56
2023/09/25 08:34:21;;;;;;;3.50;2.70;;;;;;;14.48;84.83;98674.88;6239388;28;20304;-56
2023/09/25 08:37:24;;;;;;;4.87;3.17;;;;;;;14.46;83.78;98683.13;6237748;28;20239;-55
2023/09/25 08:40:29;;;;;;;3.83;3.40;;;;;;;14.37;82.55;98666.63;6230474;28;20232;-55
2023/09/25 08:43:33;;;;;;;4.03;3.33;;;;;;;14.44;81.88;98666.47;6240232;28;20235;-56
2023/09/25 08:46:35;;;;;;;3.70;3.40;;;;;;;14.56;81.83;98685.19;6238833;28;20238;-54
2023/09/25 08:49:40;;;;;;;3.90;3.50;;;;;;;14.66;80.67;98680.00;6237041;28;20230;-57
2023/09/25 08:52:42;;;;;;;3.63;3.30;;;;;;;14.59;82.14;98695.44;6221484;28;20259;-56
2023/09/25 08:55:45;;;;;;;3.83;3.53;;;;;;;14.46;82.13;98667.03;6244753;28;20888;-56
2023/09/25 08:58:50;;;;;;;4.23;3.80;;;;;;;14.49;81.95;98661.22;6238021;28;20231;-49
2023/09/25 09:01:53;;;;;;;5.73;3.80;;;;;;;14.59;83.02;98682.03;6245503;28;20270;-57
2023/09/25 09:04:56;;;;;;;3.57;3.27;;;;;;;14.58;82.62;98686.59;6254683;28;20293;-52
2023/09/25 09:08:03;;;;;;;3.50;3.20;;;;;;;14.53;82.31;98666.91;6249884;28;20304;-54
2023/09/25 09:11:10;;;;;;;3.57;3.20;;;;;;;14.67;81.62;98693.16;6239850;28;20232;-53
2023/09/25 09:14:13;;;;;;;3.70;2.90;;;;;;;14.75;82.59;98691.16;6243189;28;20783;-55
2023/09/25 09:17:15;;;;;;;3.93;2.80;;;;;;;14.84;83.39;98695.06;6242884;28;20256;-52
2023/09/25 09:20:17;;;;;;;4.07;3.00;;;;;;;14.98;83.03;98692.84;6239781;28;20232;-56
2023/09/25 09:23:20;;;;;;;3.53;3.23;;;;;;;14.90;82.04;98659.19;6248847;28;20245;-55
2023/09/25 09:26:23;;;;;;;3.77;3.00;;;;;;;15.07;79.25;98651.91;6257709;28;20700;-56
2023/09/25 09:29:26;;;;;;;3.70;3.40;;;;;;;15.28;79.69;98684.44;6239253;28;20787;-56
2023/09/25 09:32:28;;;;;;;3.73;3.37;;;;;;;15.49;78.48;98689.81;6241876;28;20761;-56
2023/09/25 09:35:31;;;;;;;5.00;3.00;;;;;;;15.46;77.80;98678.75;6237030;28;20280;-52
2023/09/25 09:38:36;;;;;;;4.83;2.90;;;;;;;15.29;78.65;98648.47;6233957;28;20226;-54
2023/09/25 09:41:40;;;;;;;4.20;3.03;;;;;;;15.47;78.48;98664.28;6240397;28;20247;-54
2023/09/25 09:44:43;;;;;;;3.60;2.77;;;;;;;15.40;77.95;98642.16;6260424;28;20704;-57
2023/09/25 09:47:47;;;;;;;3.33;3.03;;;;;;;15.63;77.73;98671.50;6236622;28;20237;-53
2023/09/25 09:50:56;;;;;;;3.90;3.27;;;;;;;15.64;77.39;98683.84;6245441;28;20310;-57
2023/09/25 09:54:03;;;;;;;3.30;2.83;;;;;;;15.62;77.92;98677.91;6250650;28;20228;-56
2023/09/25 09:57:07;;;;;;;2.90;2.57;;;;;;;15.63;77.76;98667.97;6240015;28;20717;-56
2023/09/25 10:00:10;;;;;;;2.90;2.70;;;;;;;15.73;77.47;98677.00;6230030;28;20235;-57
2023/09/25 10:03:14;;;;;;;2.37;2.17;;;;;;;15.63;78.08;98652.69;6244250;28;20886;-57
2023/09/25 10:06:17;;;;;;;3.07;2.77;;;;;;;15.83;76.69;98672.81;6246250;28;20234;-57
2023/09/25 10:09:20;;;;;;;2.70;2.33;;;;;;;15.88;77.85;98665.59;6251438;28;20222;-54
2023/09/25 10:12:48;;;;;;;2.93;2.30;;;;;;;15.97;77.34;98663.28;6241379;28;20254;-56
2023/09/25 10:15:59;;;;;;;3.10;2.60;;;;;;;16.09;76.13;98653.19;6244009;28;20230;-56
2023/09/25 10:19:01;;;;;;;2.70;2.47;;;;;;;16.13;76.73;98667.75;6241551;28;20325;-56
2023/09/25 10:22:26;;;;;;;3.73;2.70;;;;;;;16.25;75.21;98668.44;6242976;28;20634;-55
2023/09/25 10:25:31;;;;;;;3.43;2.13;;;;;;;16.43;74.76;98663.72;6241594;28;20763;-56
2023/09/25 10:28:37;;;;;;;3.00;2.70;;;;;;;16.55;73.03;98685.91;6251996;28;20262;-56
2023/09/25 10:31:47;;;;;;;2.83;2.60;;;;;;;16.48;74.00;98678.03;6244750;28;20239;-53
2023/09/25 10:34:50;;;;;;;2.43;2.10;;;;;;;16.49;74.76;98679.66;6240498;28;20339;-56
2023/09/25 10:38:11;;;;;;;3.93;2.33;;;;;;;16.58;74.63;98674.63;6253321;28;20348;-56
2023/09/25 10:41:31;;;;;;;2.50;2.30;;;;;;;16.67;74.05;98672.28;6245916;28;20235;-54
2023/09/25 10:44:37;;;;;;;3.10;2.10;;;;;;;16.73;74.08;98682.03;6243497;28;20234;-57
2023/09/25 10:47:39;;;;;;;2.63;2.07;;;;;;;16.83;73.89;98675.94;6240540;28;20239;-56
2023/09/25 10:50:43;;;;;;;2.33;2.13;;;;;;;16.94;73.24;98677.63;6243459;28;20743;-56
2023/09/25 10:53:46;;;;;;;2.60;2.20;;;;;;;17.02;72.18;98677.16;6243884;28;20709;-55
2023/09/25 10:56:48;;;;;;;2.50;2.30;;;;;;;17.07;71.19;98679.06;6248635;28;20716;-56
2023/09/25 10:59:50;;;;;;;2.90;1.53;;;;;;;17.14;71.20;98675.09;6243792;28;20391;-57
2023/09/25 11:02:52;;;;;;;2.10;1.83;;;;;;;17.28;71.32;98672.72;6241938;28;20273;-53
2023/09/25 11:05:55;;;;;;;2.43;2.10;;;;;;;17.36;69.50;98668.72;6242966;28;20235;-56
2023/09/25 11:09:04;;;;;;;3.43;1.90;;;;;;;17.41;68.44;98666.88;6252074;28;20223;-57
2023/09/25 11:12:06;;;;;;;2.40;2.20;;;;;;;17.50;69.36;98659.09;6240669;28;20227;-55
2023/09/25 11:15:12;;;;;;;2.53;2.10;;;;;;;17.54;68.76;98642.16;6247682;28;20223;-56
2023/09/25 11:18:17;;;;;;;2.70;2.30;;;;;;;17.76;69.35;98654.66;6243222;28;20212;-55
2023/09/25 11:21:20;;;;;;;3.20;2.23;;;;;;;17.81;68.39;98654.66;6242873;28;20300;-52
2023/09/25 11:24:22;;;;;;;2.47;2.27;;;;;;;17.86;68.09;98648.50;6238912;28;20259;-56
2023/09/25 11:27:24;;;;;;;2.27;2.00;;;;;;;17.86;67.90;98645.78;6243549;28;20592;-62
2023/09/25 11:30:32;;;;;;;2.67;1.90;;;;;;;17.91;67.58;98635.81;6245111;28;20219;-56
2023/09/25 11:33:34;;;;;;;2.07;1.87;;;;;;;18.00;67.88;98641.50;6245886;28;20234;-57
2023/09/25 11:36:44;;;;;;;4.33;1.67;;;;;;;18.10;67.55;98635.34;6241686;28;20224;-56
2023/09/25 11:39:48;;;;;;;1.93;1.73;;;;;;;18.10;67.73;98630.75;6236447;28;20240;-57
2023/09/25 11:42:51;;;;;;;2.47;1.47;;;;;;;18.04;67.32;98631.81;6242952;28;20863;-56
2023/09/25 11:45:54;;;;;;;3.60;1.83;;;;;;;18.01;66.98;98640.44;6240254;28;20713;-57
2023/09/25 11:48:56;;;;;;;1.93;1.70;;;;;;;18.07;67.18;98625.88;6229363;28;20307;-56
2023/09/25 11:51:58;;;;;;;3.50;1.90;;;;;;;18.12;66.44;98627.78;6241305;28;20322;-57
2023/09/25 11:55:01;;;;;;;2.33;1.60;;;;;;;18.17;66.73;98619.69;6240548;28;20629;-55
2023/09/25 11:58:08;;;;;;;2.23;1.90;;;;;;;18.20;66.42;98619.97;6259872;28;20284;-49
2023/09/25 12:01:10;;;;;;;2.60;1.80;;;;;;;18.24;66.06;98621.06;6241771;28;20314;-53
2023/09/25 12:04:12;;;;;;;2.50;1.63;;;;;;;18.34;66.86;98617.56;6242881;28;20241;-54
2023/09/25 12:07:15;;;;;;;2.10;1.83;;;;;;;18.42;65.92;98617.03;6242877;28;20625;-54
2023/09/25 12:10:17;;;;;;;1.90;1.80;;;;;;;18.48;66.11;98617.84;6241349;28;20369;-57
2023/09/25 12:13:20;;;;;;;3.13;1.80;;;;;;;18.52;66.28;98611.63;6242644;28;20235;-56
2023/09/25 12:16:23;;;;;;;1.70;1.60;;;;;;;18.49;66.01;98601.38;6242406;28;20235;-57
2023/09/25 12:19:25;;;;;;;1.83;1.60;;;;;;;18.46;65.71;98601.09;6243516;28;20883;-57
2023/09/25 12:22:29;;;;;;;2.40;1.60;;;;;;;18.35;65.62;98589.50;6238740;28;20896;-58
2023/09/25 12:25:31;;;;;;;2.40;1.30;;;;;;;18.35;65.24;98591.41;6245540;28;20231;-57
2023/09/25 12:28:34;;;;;;;2.27;1.40;;;;;;;18.35;65.52;98584.09;6244850;28;20337;-54
2023/09/25 12:31:37;;;;;;;2.40;1.43;;;;;;;18.42;65.38;98583.81;6242647;28;20326;-61
2023/09/25 12:34:39;;;;;;;3.10;1.30;;;;;;;18.27;65.76;98560.34;6240060;28;20306;-59
2023/09/25 12:37:46;;;;;;;1.80;1.50;;;;;;;18.39;66.98;98579.00;6240727;28;20318;-58
2023/09/25 12:40:48;;;;;;;2.57;1.50;;;;;;;18.30;66.31;98555.25;6247472;28;20232;-57
2023/09/25 12:43:51;;;;;;;1.73;1.53;;;;;;;18.44;67.62;98568.19;6242503;28;20275;-57
2023/09/25 12:46:53;;;;;;;1.90;1.60;;;;;;;18.44;67.70;98577.09;6236955;28;20805;-55
2023/09/25 12:49:55;;;;;;;2.70;1.90;;;;;;;18.37;66.69;98549.56;6236254;28;20608;-57
2023/09/25 12:52:58;;;;;;;1.97;1.63;;;;;;;18.65;65.46;98568.97;6240129;28;20226;-58
2023/09/25 12:56:00;;;;;;;1.50;1.40;;;;;;;18.67;68.29;98573.03;6259777;28;20235;-58
2023/09/25 12:59:03;;;;;;;2.27;1.90;;;;;;;18.61;69.02;98565.19;6238994;28;20305;-56
2023/09/25 13:02:05;;;;;;;1.80;1.57;;;;;;;18.62;69.57;98558.72;6239472;28;20312;-55
2023/09/25 13:05:09;;;;;;;4.03;1.90;;;;;;;18.69;66.56;98557.41;6240096;28;20239;-57
2023/09/25 13:08:13;;;;;;;2.73;1.80;;;;;;;18.76;68.25;98554.41;6243426;28;20241;-58
2023/09/25 13:11:15;;;;;;;2.23;1.57;;;;;;;18.68;68.87;98557.66;6239256;28;20735;-57
2023/09/25 13:14:17;;;;;;;2.20;1.90;;;;;;;18.72;68.80;98553.34;6243937;28;20361;-50
2023/09/25 13:17:20;;;;;;;2.70;1.60;;;;;;;18.70;70.42;98550.91;6243066;28;20224;-56
2023/09/25 13:20:22;;;;;;;3.20;1.53;;;;;;;18.66;70.59;98554.38;6245983;28;20320;-54
2023/09/25 13:23:24;;;;;;;2.93;1.77;;;;;;;18.64;70.86;98549.28;6259614;28;20232;-57
2023/09/25 13:26:27;;;;;;;3.63;1.63;;;;;;;18.67;69.92;98543.34;6246919;28;20230;-55
2023/09/25 13:29:30;;;;;;;4.27;2.17;;;;;;;18.66;70.55;98540.91;6246432;28;20242;-57
2023/09/25 13:32:32;;;;;;;2.47;1.77;;;;;;;18.61;71.65;98541.72;6241743;28;20231;-55
2023/09/25 13:35:34;;;;;;;2.23;1.80;;;;;;;18.59;71.83;98537.69;6247475;28;20269;-57
2023/09/25 13:38:36;;;;;;;3.47;2.00;;;;;;;18.54;73.04;98542.00;6247220;28;20223;-55
2023/09/25 13:41:38;;;;;;;2.93;2.30;;;;;;;18.56;73.35;98542.53;6246923;28;20228;-57
2023/09/25 13:44:41;;;;;;;2.90;2.40;;;;;;;18.56;73.35;98544.41;6252614;28;20231;-56
2023/09/25 13:47:46;;;;;;;3.70;2.13;;;;;;;18.51;70.25;98512.06;6242084;28;20223;-57
2023/09/25 13:50:49;;;;;;;3.93;2.20;;;;;;;18.91;69.20;98521.16;6244345;28;20231;-57
2023/09/25 13:53:53;;;;;;;5.10;2.53;;;;;;;18.96;69.19;98530.03;6244842;28;20246;-56
2023/09/25 13:56:56;;;;;;;3.87;2.13;;;;;;;19.04;67.37;98526.78;6245676;28;20258;-57
2023/09/25 13:59:58;;;;;;;6.00;2.27;;;;;;;19.01;69.52;98524.66;6243276;28;20289;-56
2023/09/25 14:03:00;;;;;;;4.87;2.90;;;;;;;18.95;68.27;98496.03;6244862;28;20602;-59
2023/09/25 14:06:04;;;;;;;6.47;3.40;;;;;;;19.05;66.81;98531.09;6246064;28;20215;-55
2023/09/25 14:09:08;;;;;;;3.07;2.57;;;;;;;19.02;69.06;98528.97;6249301;28;20216;-58
2023/09/25 14:12:10;;;;;;;5.33;2.80;;;;;;;18.95;69.66;98538.44;6231595;28;20224;-55
2023/09/25 14:15:14;;;;;;;4.37;3.10;;;;;;;18.91;69.92;98548.16;6243065;28;20266;-57
2023/09/25 14:18:17;;;;;;;3.90;3.00;;;;;;;18.88;69.86;98535.22;6242806;28;20689;-57
2023/09/25 14:21:20;;;;;;;3.17;2.87;;;;;;;18.88;72.36;98540.63;6233936;28;20208;-56
2023/09/25 14:24:22;;;;;;;5.03;2.70;;;;;;;18.70;73.65;98547.41;6233145;28;20227;-56